Time;durP1;ratioP1;P1;durP2;ratioP2;P2;SDS_P1;SDS_P2;PMS_P1;PMS_P2;Temp;Humidity;BMP_temperature;BMP_pressure;BME280_temperature;BME280_humidity;BME280_pressure;Samples;Min_cycle;Max_cycle;Signal;HPM_P1;HPM_P2
2022/07/10 00:09:03;;;;;;;2.90;0.60;;;20.40;56.10;;;;;;20582976;28;20093;-72
2022/07/10 00:19:04;;;;;;;0.77;0.22;;;20.30;56.30;;;;;;20609379;28;20034;-75
2022/07/10 00:29:04;;;;;;;1.85;0.70;;;20.20;56.40;;;;;;20597317;28;20141;-73
2022/07/10 00:39:05;;;;;;;0.98;0.68;;;20.30;56.50;;;;;;20617995;28;20113;-72
2022/07/10 00:49:06;;;;;;;2.85;0.60;;;20.20;56.60;;;;;;20994836;23;20049;-77
2022/07/10 00:59:07;;;;;;;6.63;0.70;;;20.20;56.70;;;;;;20657665;28;20121;-76
2022/07/10 01:09:08;;;;;;;3.15;0.68;;;20.20;56.80;;;;;;20642215;28;20385;-77
2022/07/10 01:19:11;;;;;;;4.50;0.73;;;20.20;56.90;;;;;;20657980;28;20041;-77
2022/07/10 01:29:12;;;;;;;2.47;0.50;;;20.20;57.10;;;;;;20640504;28;20034;-77
2022/07/10 01:39:12;;;;;;;2.40;0.60;;;20.10;57.20;;;;;;20653911;28;20477;-76
2022/07/10 01:49:13;;;;;;;3.60;0.55;;;20.10;57.40;;;;;;20624773;28;20293;-76
2022/07/10 01:59:14;;;;;;;1.50;0.50;;;20.10;57.60;;;;;;20654708;28;20058;-76
2022/07/10 02:09:15;;;;;;;2.47;0.73;;;20.10;57.80;;;;;;20669115;28;20359;-76
2022/07/10 02:19:16;;;;;;;3.90;0.63;;;20.00;57.90;;;;;;20652249;28;20042;-76
2022/07/10 02:29:17;;;;;;;1.80;0.68;;;20.00;58.10;;;;;;20635433;28;20115;-77
2022/07/10 02:39:18;;;;;;;0.30;0.30;;;20.00;58.20;;;;;;20651142;28;20472;-76
2022/07/10 02:49:19;;;;;;;1.38;0.32;;;19.90;58.30;;;;;;20650207;28;20666;-76
2022/07/10 02:59:20;;;;;;;2.20;0.73;;;19.90;58.50;;;;;;20648797;28;20113;-75
2022/07/10 03:09:20;;;;;;;3.97;0.60;;;19.90;58.60;;;;;;20664231;28;20113;-78
2022/07/10 03:19:21;;;;;;;2.53;0.60;;;19.90;58.70;;;;;;20647566;28;20497;-76
2022/07/10 03:29:21;;;;;;;0.93;0.30;;;19.90;58.80;;;;;;20615802;28;20081;-76
2022/07/10 03:39:22;;;;;;;2.30;0.43;;;19.80;58.90;;;;;;20630907;28;20034;-76
2022/07/10 03:49:23;;;;;;;2.08;0.77;;;19.80;59.00;;;;;;20630405;28;20325;-76
2022/07/10 03:59:23;;;;;;;2.45;0.70;;;19.80;59.10;;;;;;20644636;28;20034;-75
2022/07/10 04:09:24;;;;;;;1.65;0.55;;;19.80;59.10;;;;;;20645563;28;20117;-77
2022/07/10 04:19:24;;;;;;;2.95;0.70;;;19.80;59.20;;;;;;20642153;28;20045;-76
2022/07/10 04:29:25;;;;;;;5.40;0.90;;;19.70;59.20;;;;;;20626534;28;20034;-76
2022/07/10 04:39:26;;;;;;;5.60;0.95;;;19.70;59.20;;;;;;20659403;28;20069;-76
2022/07/10 04:49:26;;;;;;;2.25;0.60;;;19.70;59.20;;;;;;20644488;28;20444;-79
2022/07/10 04:59:27;;;;;;;2.75;0.60;;;19.70;59.20;;;;;;20660937;28;20046;-79
2022/07/10 05:09:27;;;;;;;3.93;0.50;;;19.70;59.20;;;;;;20659041;28;20061;-80
2022/07/10 05:19:28;;;;;;;1.42;0.50;;;19.70;59.30;;;;;;20657915;28;20307;-79
2022/07/10 05:29:29;;;;;;;2.08;0.68;;;19.70;59.30;;;;;;20640910;28;20027;-78
2022/07/10 05:39:29;;;;;;;1.15;0.45;;;19.70;59.30;;;;;;20638911;28;20774;-72
2022/07/10 05:49:32;;;;;;;3.47;0.55;;;19.60;59.40;;;;;;20638508;28;20058;-75
2022/07/10 05:59:35;;;;;;;6.68;0.70;;;19.60;59.50;;;;;;20632890;28;20121;-73
2022/07/10 06:09:36;;;;;;;5.25;0.90;;;19.60;59.60;;;;;;20651403;28;20472;-70
2022/07/10 06:19:37;;;;;;;2.50;1.42;;;19.60;59.60;;;;;;20646514;28;20042;-73
2022/07/10 06:29:37;;;;;;;3.47;0.70;;;19.60;59.70;;;;;;20611477;28;20491;-71
2022/07/10 06:39:38;;;;;;;2.65;0.95;;;19.60;59.80;;;;;;20628925;28;20312;-74
2022/07/10 06:49:40;;;;;;;2.47;0.82;;;19.60;59.70;;;;;;20617852;28;20053;-73
2022/07/10 06:59:40;;;;;;;3.17;0.50;;;19.60;59.60;;;;;;20639025;28;20042;-73
2022/07/10 07:09:42;;;;;;;1.53;0.40;;;19.60;59.60;;;;;;20602530;28;20089;-73
2022/07/10 07:30:12;;;;;;;5.82;1.00;;;19.60;60.10;;;;;;20656030;28;20038;-73
2022/07/10 07:40:14;;;;;;;4.55;1.00;;;19.70;59.40;;;;;;20610724;28;20053;-71
2022/07/10 07:50:16;;;;;;;7.78;1.17;;;19.70;59.30;;;;;;20624159;28;20037;-71
2022/07/10 08:00:17;;;;;;;5.88;1.77;;;19.80;59.50;;;;;;20649430;28;20038;-72
2022/07/10 08:10:19;;;;;;;4.45;1.45;;;19.80;59.50;;;;;;20628747;28;20081;-69
2022/07/10 08:20:20;;;;;;;3.97;1.17;;;19.80;59.50;;;;;;20619142;28;20046;-70
2022/07/10 08:30:21;;;;;;;3.05;1.30;;;19.90;59.50;;;;;;20649405;28;20085;-70
2022/07/10 08:40:22;;;;;;;4.22;0.90;;;19.90;59.40;;;;;;20617681;28;20046;-74
2022/07/10 08:50:23;;;;;;;11.02;1.50;;;19.90;59.10;;;;;;20614367;28;20110;-73
2022/07/10 09:00:24;;;;;;;10.52;1.98;;;20.00;59.00;;;;;;20664052;28;20069;-73
2022/07/10 09:10:26;;;;;;;4.22;1.63;;;20.10;58.80;;;;;;20656913;28;20540;-77
2022/07/10 09:20:30;;;;;;;8.55;1.45;;;20.20;58.80;;;;;;20617972;28;20030;-72
2022/07/10 09:30:38;;;;;;;6.22;1.30;;;20.20;58.70;;;;;;20650361;28;20042;-72
2022/07/10 09:40:38;;;;;;;5.75;1.63;;;20.10;58.50;;;;;;20617754;28;20038;-70
2022/07/10 09:50:40;;;;;;;5.70;1.25;;;20.10;58.10;;;;;;20625058;28;20121;-72
2022/07/10 10:00:40;;;;;;;5.13;1.17;;;20.10;57.90;;;;;;20647615;28;20049;-72
2022/07/10 10:10:49;;;;;;;6.25;1.50;;;20.10;57.90;;;;;;20610173;28;20412;-70
2022/07/10 10:20:51;;;;;;;5.18;1.00;;;20.20;58.20;;;;;;20631321;28;20034;-73
2022/07/10 10:30:57;;;;;;;4.95;1.02;;;20.20;58.20;;;;;;20623456;28;20049;-75
2022/07/10 10:41:24;;;;;;;6.15;0.88;;;20.20;58.00;;;;;;20610879;28;20038;-73
2022/07/10 10:51:50;;;;;;;3.72;0.95;;;20.10;57.30;;;;;;20646531;28;20046;-72
2022/07/10 11:02:32;;;;;;;3.38;1.00;;;20.10;57.10;;;;;;20661404;28;20483;-72
2022/07/10 11:12:53;;;;;;;5.28;0.90;;;20.20;57.80;;;;;;20615792;28;20090;-71
2022/07/10 11:23:06;;;;;;;2.55;0.75;;;20.20;57.10;;;;;;20612435;28;20041;-71
2022/07/10 11:33:07;;;;;;;5.57;1.10;;;20.20;56.70;;;;;;20627159;28;20054;-71
2022/07/10 11:43:13;;;;;;;4.55;1.00;;;20.20;56.40;;;;;;20625543;28;20509;-71
2022/07/10 11:53:22;;;;;;;3.15;1.10;;;20.20;56.10;;;;;;20633871;28;20044;-70
2022/07/10 12:03:23;;;;;;;5.25;1.20;;;20.20;55.60;;;;;;20605014;28;20088;-71
2022/07/10 12:13:24;;;;;;;5.75;1.20;;;20.20;55.20;;;;;;20637432;28;20030;-71
2022/07/10 12:23:24;;;;;;;5.30;1.13;;;20.20;54.90;;;;;;20640350;28;20050;-71
2022/07/10 12:33:25;;;;;;;3.60;1.20;;;20.30;54.70;;;;;;20600490;28;20058;-69
2022/07/10 12:43:28;;;;;;;5.28;1.20;;;20.30;54.40;;;;;;20614944;28;20042;-73
2022/07/10 12:53:29;;;;;;;4.88;1.40;;;20.30;54.20;;;;;;20637729;28;20078;-72
2022/07/10 13:03:31;;;;;;;7.50;1.10;;;20.30;54.20;;;;;;20620712;28;20066;-71
2022/07/10 13:13:32;;;;;;;4.53;0.82;;;20.30;54.10;;;;;;20669411;28;20051;-73
2022/07/10 13:23:32;;;;;;;5.47;1.03;;;20.40;54.30;;;;;;20608017;28;20034;-73
2022/07/10 13:33:33;;;;;;;5.70;1.10;;;20.40;54.40;;;;;;20667241;28;20049;-70
2022/07/10 13:43:34;;;;;;;2.27;0.87;;;20.40;54.60;;;;;;20649331;28;20180;-72
2022/07/10 13:53:35;;;;;;;3.53;0.90;;;20.40;54.60;;;;;;20610426;28;20671;-72
2022/07/10 14:03:35;;;;;;;6.18;0.98;;;20.50;54.50;;;;;;20610869;28;20046;-72
2022/07/10 14:13:36;;;;;;;6.65;1.23;;;20.50;54.40;;;;;;20629569;28;20102;-72
2022/07/10 14:23:38;;;;;;;5.30;0.90;;;20.50;54.30;;;;;;20634287;28;20125;-73
2022/07/10 14:33:39;;;;;;;3.25;0.80;;;20.60;54.00;;;;;;20627431;28;20396;-71
2022/07/10 14:43:39;;;;;;;2.20;0.85;;;20.70;53.80;;;;;;20627781;28;20125;-73
2022/07/10 14:53:41;;;;;;;4.30;0.90;;;20.70;54.00;;;;;;20642148;28;20046;-72
2022/07/10 15:03:42;;;;;;;5.22;0.98;;;20.60;53.90;;;;;;20633650;28;20049;-72
2022/07/10 15:13:42;;;;;;;4.88;0.95;;;20.80;53.80;;;;;;20620589;28;20046;-73
2022/07/10 15:23:43;;;;;;;3.08;1.15;;;20.90;53.50;;;;;;20639779;28;20161;-71
2022/07/10 15:33:45;;;;;;;5.00;0.77;;;20.90;53.10;;;;;;20622908;28;20042;-72
2022/07/10 15:43:45;;;;;;;4.72;0.93;;;20.90;53.00;;;;;;20618372;28;20039;-73
2022/07/10 15:53:46;;;;;;;4.25;0.98;;;20.90;53.10;;;;;;20633069;28;20057;-71
2022/07/10 16:03:48;;;;;;;4.35;0.70;;;20.90;53.00;;;;;;20628114;28;20461;-74
2022/07/10 16:13:49;;;;;;;5.72;1.27;;;20.90;53.00;;;;;;20639154;28;20042;-69
2022/07/10 16:23:51;;;;;;;5.13;1.17;;;20.90;53.00;;;;;;20654501;28;20565;-74
2022/07/10 16:33:52;;;;;;;9.20;1.60;;;20.90;53.10;;;;;;20620712;28;20062;-70
2022/07/10 16:43:53;;;;;;;5.53;1.13;;;20.90;53.30;;;;;;20667898;28;20118;-75
2022/07/10 16:53:54;;;;;;;4.93;0.85;;;20.80;53.50;;;;;;20636595;28;20473;-68
2022/07/10 17:03:55;;;;;;;3.28;1.17;;;20.80;53.60;;;;;;20652341;28;20080;-70
2022/07/10 17:13:57;;;;;;;2.47;0.80;;;20.80;53.70;;;;;;20645957;28;20125;-72
2022/07/10 17:23:57;;;;;;;4.78;0.70;;;20.80;54.00;;;;;;20664801;28;20382;-69
2022/07/10 17:33:58;;;;;;;6.30;1.30;;;20.90;53.90;;;;;;20652934;28;20038;-69
2022/07/10 17:43:58;;;;;;;3.80;0.80;;;21.00;53.70;;;;;;20656564;28;20031;-70
2022/07/10 17:53:59;;;;;;;2.90;1.05;;;21.10;53.50;;;;;;20646835;28;20157;-69
2022/07/10 18:03:59;;;;;;;4.28;1.08;;;21.10;53.20;;;;;;20641434;28;20035;-74
2022/07/10 18:14:00;;;;;;;2.60;0.67;;;21.20;52.80;;;;;;20633198;28;20108;-72
2022/07/10 18:24:01;;;;;;;3.38;0.85;;;21.20;52.40;;;;;;20651499;28;20113;-69
2022/07/10 18:44:21;;;;;;;3.05;0.70;;;21.10;51.80;;;;;;20660754;28;20428;-68
2022/07/10 18:54:22;;;;;;;4.38;1.05;;;21.00;51.80;;;;;;20655734;28;20092;-69
2022/07/10 19:04:22;;;;;;;2.17;0.73;;;20.90;52.00;;;;;;20649450;28;20096;-68
2022/07/10 19:14:23;;;;;;;2.33;0.70;;;20.90;52.20;;;;;;20627664;28;20281;-68
2022/07/10 19:24:23;;;;;;;6.07;0.83;;;20.90;52.30;;;;;;20647482;28;20745;-69
2022/07/10 19:34:25;;;;;;;1.50;0.60;;;20.80;52.30;;;;;;20618899;28;20125;-69
2022/07/10 19:44:25;;;;;;;4.70;0.98;;;20.80;52.30;;;;;;20636847;28;20488;-69
2022/07/10 19:54:26;;;;;;;4.63;0.60;;;20.70;52.40;;;;;;20631541;28;20153;-68
2022/07/10 20:04:27;;;;;;;3.85;0.90;;;20.70;52.30;;;;;;20621552;28;20075;-68
2022/07/10 20:14:29;;;;;;;4.22;0.70;;;20.60;52.30;;;;;;20637719;28;20045;-68
2022/07/10 20:24:30;;;;;;;2.58;0.50;;;20.60;52.40;;;;;;20655268;28;20066;-70
2022/07/10 20:34:30;;;;;;;1.13;0.60;;;20.60;52.60;;;;;;20650716;28;20058;-69
2022/07/10 20:44:31;;;;;;;2.53;0.57;;;20.50;52.70;;;;;;20621176;28;20292;-71
2022/07/10 20:54:32;;;;;;;4.00;0.80;;;20.50;52.80;;;;;;20650334;28;20057;-69
2022/07/10 21:04:32;;;;;;;1.65;0.60;;;20.50;52.90;;;;;;20663982;28;20292;-69
2022/07/10 21:14:33;;;;;;;4.22;1.00;;;20.40;53.10;;;;;;20649053;28;20040;-68
2022/07/10 21:24:34;;;;;;;1.73;0.63;;;20.40;53.20;;;;;;20630325;28;20121;-68
2022/07/10 21:34:34;;;;;;;2.78;0.60;;;20.40;53.50;;;;;;20632853;28;20038;-68
2022/07/10 21:44:35;;;;;;;1.35;0.80;;;20.40;53.60;;;;;;20664620;28;20042;-71
2022/07/10 21:54:35;;;;;;;3.30;0.60;;;20.30;53.70;;;;;;20664669;28;20125;-69
2022/07/10 22:04:36;;;;;;;6.18;0.80;;;20.30;53.80;;;;;;20644576;28;20030;-69
2022/07/10 22:14:37;;;;;;;2.40;0.52;;;20.30;53.90;;;;;;20630021;28;20505;-67
2022/07/10 22:24:38;;;;;;;1.35;0.57;;;20.20;53.90;;;;;;20645882;28;20117;-69
2022/07/10 22:34:38;;;;;;;1.35;0.55;;;20.20;54.00;;;;;;20643442;28;20030;-70
2022/07/10 22:44:39;;;;;;;4.07;0.57;;;20.20;54.00;;;;;;20661341;28;20045;-69
2022/07/10 22:54:39;;;;;;;3.17;0.63;;;20.20;54.10;;;;;;20627603;28;20503;-68
2022/07/10 23:04:40;;;;;;;1.77;0.47;;;20.20;54.20;;;;;;20660559;28;20399;-69
2022/07/10 23:14:41;;;;;;;1.90;0.40;;;20.20;54.20;;;;;;20658494;28;20037;-69
2022/07/10 23:24:41;;;;;;;1.52;0.77;;;20.10;54.20;;;;;;20658261;28;20046;-69
2022/07/10 23:34:42;;;;;;;0.70;0.50;;;20.10;54.20;;;;;;20658110;28;20547;-68
2022/07/10 23:44:43;;;;;;;2.80;0.80;;;20.10;54.30;;;;;;20641652;28;20534;-67
2022/07/10 23:54:44;;;;;;;1.67;0.68;;;20.10;54.40;;;;;;20639980;28;20508;-68
